sensor_id;sensor_type;location;lat;lon;timestamp;pressure;altitude;pressure_sealevel;temperature;humidity
57050;BME280;42935;50.966;16.992;2022-09-01T00:00:30;102002.59;;;12.18;100.00
57050;BME280;42935;50.966;16.992;2022-09-01T00:03:40;102010.25;;;12.26;100.00
57050;BME280;42935;50.966;16.992;2022-09-01T00:06:50;102007.73;;;12.36;100.00
57050;BME280;42935;50.966;16.992;2022-09-01T00:10:07;102005.99;;;12.36;100.00
57050;BME280;42935;50.966;16.992;2022-09-01T00:13:17;102007.00;;;12.34;100.00
57050;BME280;42935;50.966;16.992;2022-09-01T00:16:28;102008.98;;;12.39;100.00
57050;BME280;42935;50.966;16.992;2022-09-01T00:19:39;102001.07;;;12.24;100.00
57050;BME280;42935;50.966;16.992;2022-09-01T00:22:48;102010.70;;;12.32;100.00
57050;BME280;42935;50.966;16.992;2022-09-01T00:25:59;102010.73;;;12.49;100.00
57050;BME280;42935;50.966;16.992;2022-09-01T00:29:09;102004.37;;;12.45;100.00
57050;BME280;42935;50.966;16.992;2022-09-01T00:32:20;102008.77;;;12.51;100.00
57050;BME280;42935;50.966;16.992;2022-09-01T00:35:32;101998.68;;;12.44;100.00
57050;BME280;42935;50.966;16.992;2022-09-01T00:38:48;102013.49;;;12.47;100.00
57050;BME280;42935;50.966;16.992;2022-09-01T00:41:58;102011.35;;;12.39;100.00
57050;BME280;42935;50.966;16.992;2022-09-01T00:45:10;102005.46;;;12.26;100.00
57050;BME280;42935;50.966;16.992;2022-09-01T00:48:20;102009.33;;;12.38;100.00
57050;BME280;42935;50.966;16.992;2022-09-01T00:51:33;102009.37;;;12.35;100.00
57050;BME280;42935;50.966;16.992;2022-09-01T00:54:52;102009.52;;;12.32;100.00
57050;BME280;42935;50.966;16.992;2022-09-01T00:58:07;102010.86;;;12.40;100.00
57050;BME280;42935;50.966;16.992;2022-09-01T01:01:18;102010.87;;;12.27;100.00
57050;BME280;42935;50.966;16.992;2022-09-01T01:04:29;102008.05;;;12.16;100.00
57050;BME280;42935;50.966;16.992;2022-09-01T01:07:42;102009.01;;;12.25;100.00
57050;BME280;42935;50.966;16.992;2022-09-01T01:10:54;101999.28;;;12.18;100.00
57050;BME280;42935;50.966;16.992;2022-09-01T01:14:07;102000.18;;;12.08;100.00
57050;BME280;42935;50.966;16.992;2022-09-01T01:17:23;101998.12;;;12.02;100.00
57050;BME280;42935;50.966;16.992;2022-09-01T01:20:34;102002.58;;;12.11;100.00
57050;BME280;42935;50.966;16.992;2022-09-01T01:27:33;102005.67;;;12.07;100.00
57050;BME280;42935;50.966;16.992;2022-09-01T01:30:48;102005.64;;;11.94;100.00
57050;BME280;42935;50.966;16.992;2022-09-01T01:34:04;102005.67;;;12.08;100.00
57050;BME280;42935;50.966;16.992;2022-09-01T01:37:20;102004.77;;;12.22;100.00
57050;BME280;42935;50.966;16.992;2022-09-01T01:40:37;102000.73;;;12.34;100.00
57050;BME280;42935;50.966;16.992;2022-09-01T01:43:48;101999.11;;;12.44;100.00
57050;BME280;42935;50.966;16.992;2022-09-01T01:46:59;101989.18;;;12.32;100.00
57050;BME280;42935;50.966;16.992;2022-09-01T01:50:17;101995.33;;;12.45;100.00
57050;BME280;42935;50.966;16.992;2022-09-01T01:53:32;101983.38;;;12.44;100.00
57050;BME280;42935;50.966;16.992;2022-09-01T01:56:42;101986.05;;;12.51;100.00
57050;BME280;42935;50.966;16.992;2022-09-01T01:59:52;101988.01;;;12.47;100.00
57050;BME280;42935;50.966;16.992;2022-09-01T02:03:08;101991.02;;;12.49;100.00
57050;BME280;42935;50.966;16.992;2022-09-01T02:06:24;101991.59;;;12.48;100.00
57050;BME280;42935;50.966;16.992;2022-09-01T02:09:40;101992.47;;;12.48;100.00
57050;BME280;42935;50.966;16.992;2022-09-01T02:12:57;101986.13;;;12.39;100.00
57050;BME280;42935;50.966;16.992;2022-09-01T02:16:13;101989.21;;;12.40;100.00
57050;BME280;42935;50.966;16.992;2022-09-01T02:19:24;101993.73;;;12.43;100.00
57050;BME280;42935;50.966;16.992;2022-09-01T02:22:36;101991.91;;;12.31;100.00
57050;BME280;42935;50.966;16.992;2022-09-01T02:25:56;101989.44;;;12.27;100.00
57050;BME280;42935;50.966;16.992;2022-09-01T02:29:14;101988.91;;;12.36;100.00
57050;BME280;42935;50.966;16.992;2022-09-01T02:32:29;101984.49;;;12.22;100.00
57050;BME280;42935;50.966;16.992;2022-09-01T02:35:40;101986.03;;;12.14;100.00
57050;BME280;42935;50.966;16.992;2022-09-01T02:38:53;101986.48;;;12.23;100.00
57050;BME280;42935;50.966;16.992;2022-09-01T02:42:05;101982.70;;;12.22;100.00
57050;BME280;42935;50.966;16.992;2022-09-01T02:45:22;101978.05;;;12.18;100.00
57050;BME280;42935;50.966;16.992;2022-09-01T02:48:38;101984.82;;;12.37;100.00
57050;BME280;42935;50.966;16.992;2022-09-01T02:51:53;101985.47;;;12.35;100.00
57050;BME280;42935;50.966;16.992;2022-09-01T02:55:12;101987.77;;;12.24;100.00
57050;BME280;42935;50.966;16.992;2022-09-01T02:58:29;101989.30;;;12.37;100.00
57050;BME280;42935;50.966;16.992;2022-09-01T03:01:54;101990.87;;;12.42;100.00
57050;BME280;42935;50.966;16.992;2022-09-01T03:05:09;101992.82;;;12.48;100.00
57050;BME280;42935;50.966;16.992;2022-09-01T03:08:50;101991.30;;;12.52;100.00
57050;BME280;42935;50.966;16.992;2022-09-01T03:12:02;101984.17;;;12.52;100.00
57050;BME280;42935;50.966;16.992;2022-09-01T03:15:15;101991.23;;;12.59;100.00
57050;BME280;42935;50.966;16.992;2022-09-01T03:18:25;101994.16;;;12.57;100.00
57050;BME280;42935;50.966;16.992;2022-09-01T03:22:06;101996.34;;;12.58;100.00
57050;BME280;42935;50.966;16.992;2022-09-01T03:25:24;101985.30;;;12.56;100.00
57050;BME280;42935;50.966;16.992;2022-09-01T03:28:32;102000.65;;;12.61;100.00
57050;BME280;42935;50.966;16.992;2022-09-01T03:31:42;101990.61;;;12.54;100.00
57050;BME280;42935;50.966;16.992;2022-09-01T03:34:54;101993.07;;;12.51;100.00
57050;BME280;42935;50.966;16.992;2022-09-01T03:38:05;101994.39;;;12.40;100.00
57050;BME280;42935;50.966;16.992;2022-09-01T03:41:18;101994.59;;;12.26;100.00
57050;BME280;42935;50.966;16.992;2022-09-01T03:44:31;101998.26;;;12.29;100.00
57050;BME280;42935;50.966;16.992;2022-09-01T03:47:47;102001.53;;;12.20;100.00
57050;BME280;42935;50.966;16.992;2022-09-01T03:50:58;101998.13;;;12.33;100.00
57050;BME280;42935;50.966;16.992;2022-09-01T03:54:12;101996.37;;;12.17;100.00
57050;BME280;42935;50.966;16.992;2022-09-01T03:57:23;101997.68;;;12.07;100.00
57050;BME280;42935;50.966;16.992;2022-09-01T04:00:42;102001.55;;;12.06;100.00
57050;BME280;42935;50.966;16.992;2022-09-01T04:03:53;102006.52;;;12.21;100.00
57050;BME280;42935;50.966;16.992;2022-09-01T04:07:03;102010.79;;;12.20;100.00
57050;BME280;42935;50.966;16.992;2022-09-01T04:10:10;102008.92;;;12.09;100.00
57050;BME280;42935;50.966;16.992;2022-09-01T04:13:27;102005.63;;;12.30;100.00
57050;BME280;42935;50.966;16.992;2022-09-01T04:16:41;101993.50;;;12.26;100.00
57050;BME280;42935;50.966;16.992;2022-09-01T04:20:04;101997.30;;;12.40;100.00
57050;BME280;42935;50.966;16.992;2022-09-01T04:23:22;101989.09;;;12.29;100.00
57050;BME280;42935;50.966;16.992;2022-09-01T04:26:44;101998.34;;;12.45;100.00
57050;BME280;42935;50.966;16.992;2022-09-01T04:29:58;101994.84;;;12.49;100.00
57050;BME280;42935;50.966;16.992;2022-09-01T04:33:13;101999.66;;;12.53;100.00
57050;BME280;42935;50.966;16.992;2022-09-01T04:36:29;102000.41;;;12.61;100.00
57050;BME280;42935;50.966;16.992;2022-09-01T04:39:52;102010.13;;;12.65;100.00
57050;BME280;42935;50.966;16.992;2022-09-01T04:43:33;102010.08;;;12.61;100.00
57050;BME280;42935;50.966;16.992;2022-09-01T04:46:43;102009.98;;;12.75;100.00
57050;BME280;42935;50.966;16.992;2022-09-01T04:50:29;102008.90;;;12.80;100.00
57050;BME280;42935;50.966;16.992;2022-09-01T04:53:42;102012.08;;;12.72;100.00
57050;BME280;42935;50.966;16.992;2022-09-01T04:56:52;102012.81;;;12.53;100.00
57050;BME280;42935;50.966;16.992;2022-09-01T05:00:04;102010.88;;;12.60;100.00
57050;BME280;42935;50.966;16.992;2022-09-01T05:03:55;102011.74;;;12.71;100.00
57050;BME280;42935;50.966;16.992;2022-09-01T05:07:11;102012.04;;;12.76;100.00
57050;BME280;42935;50.966;16.992;2022-09-01T05:10:25;102011.79;;;12.86;100.00
57050;BME280;42935;50.966;16.992;2022-09-01T05:14:07;102013.59;;;12.95;100.00
57050;BME280;42935;50.966;16.992;2022-09-01T05:17:17;102017.62;;;13.03;100.00
57050;BME280;42935;50.966;16.992;2022-09-01T05:20:29;102017.92;;;13.25;100.00
57050;BME280;42935;50.966;16.992;2022-09-01T05:23:43;102007.41;;;13.21;100.00
57050;BME280;42935;50.966;16.992;2022-09-01T05:26:55;102013.10;;;13.44;100.00
57050;BME280;42935;50.966;16.992;2022-09-01T05:30:08;102012.32;;;13.41;100.00
57050;BME280;42935;50.966;16.992;2022-09-01T05:33:48;102011.59;;;13.53;100.00
57050;BME280;42935;50.966;16.992;2022-09-01T05:37:01;102009.66;;;13.54;100.00
57050;BME280;42935;50.966;16.992;2022-09-01T05:40:13;102015.76;;;13.44;100.00
57050;BME280;42935;50.966;16.992;2022-09-01T05:43:55;102019.98;;;13.57;100.00
57050;BME280;42935;50.966;16.992;2022-09-01T05:47:39;102021.57;;;13.78;100.00
57050;BME280;42935;50.966;16.992;2022-09-01T05:51:25;102025.73;;;13.64;100.00
57050;BME280;42935;50.966;16.992;2022-09-01T05:54:32;102028.21;;;13.85;100.00
57050;BME280;42935;50.966;16.992;2022-09-01T05:57:44;102025.28;;;13.90;100.00
57050;BME280;42935;50.966;16.992;2022-09-01T06:01:28;102030.14;;;14.12;100.00
57050;BME280;42935;50.966;16.992;2022-09-01T06:04:42;102030.07;;;14.33;100.00
57050;BME280;42935;50.966;16.992;2022-09-01T06:07:52;102031.38;;;14.48;100.00
57050;BME280;42935;50.966;16.992;2022-09-01T06:11:05;102026.45;;;14.65;100.00
57050;BME280;42935;50.966;16.992;2022-09-01T06:14:25;102025.38;;;14.68;100.00
57050;BME280;42935;50.966;16.992;2022-09-01T06:17:33;102022.57;;;14.78;100.00
57050;BME280;42935;50.966;16.992;2022-09-01T06:20:45;102024.41;;;14.81;100.00
57050;BME280;42935;50.966;16.992;2022-09-01T06:23:56;102029.13;;;14.97;100.00
57050;BME280;42935;50.966;16.992;2022-09-01T06:27:08;102025.44;;;15.29;100.00
57050;BME280;42935;50.966;16.992;2022-09-01T06:30:18;102029.55;;;15.33;100.00
57050;BME280;42935;50.966;16.992;2022-09-01T06:33:34;102033.03;;;15.47;100.00
57050;BME280;42935;50.966;16.992;2022-09-01T06:36:45;102039.60;;;15.20;100.00
57050;BME280;42935;50.966;16.992;2022-09-01T06:39:59;102041.34;;;15.45;100.00
57050;BME280;42935;50.966;16.992;2022-09-01T06:43:30;102043.22;;;15.47;100.00
57050;BME280;42935;50.966;16.992;2022-09-01T06:46:41;102044.23;;;15.70;100.00
57050;BME280;42935;50.966;16.992;2022-09-01T06:50:20;102018.84;;;15.62;100.00
57050;BME280;42935;50.966;16.992;2022-09-01T06:53:30;102044.88;;;15.81;100.00
57050;BME280;42935;50.966;16.992;2022-09-01T06:56:39;102048.66;;;15.95;100.00
57050;BME280;42935;50.966;16.992;2022-09-01T06:59:47;102050.44;;;15.83;100.00
57050;BME280;42935;50.966;16.992;2022-09-01T07:02:59;102052.63;;;15.93;100.00
57050;BME280;42935;50.966;16.992;2022-09-01T07:06:43;102055.09;;;16.05;100.00
57050;BME280;42935;50.966;16.992;2022-09-01T07:10:04;102050.07;;;16.28;100.00
57050;BME280;42935;50.966;16.992;2022-09-01T07:13:20;102049.07;;;16.39;100.00
57050;BME280;42935;50.966;16.992;2022-09-01T07:16:36;102053.09;;;16.10;100.00
57050;BME280;42935;50.966;16.992;2022-09-01T07:19:51;102053.30;;;16.25;100.00
57050;BME280;42935;50.966;16.992;2022-09-01T07:23:04;102051.68;;;16.30;100.00
57050;BME280;42935;50.966;16.992;2022-09-01T07:26:14;102056.88;;;16.07;100.00
57050;BME280;42935;50.966;16.992;2022-09-01T07:29:28;102060.62;;;15.98;100.00
57050;BME280;42935;50.966;16.992;2022-09-01T07:32:38;102054.36;;;16.05;100.00
57050;BME280;42935;50.966;16.992;2022-09-01T07:35:57;102060.46;;;16.20;100.00
57050;BME280;42935;50.966;16.992;2022-09-01T07:39:10;102054.30;;;16.03;100.00
57050;BME280;42935;50.966;16.992;2022-09-01T07:42:24;102063.43;;;16.20;100.00
57050;BME280;42935;50.966;16.992;2022-09-01T07:45:35;102059.28;;;16.48;100.00
57050;BME280;42935;50.966;16.992;2022-09-01T07:48:46;102057.66;;;16.65;100.00
57050;BME280;42935;50.966;16.992;2022-09-01T07:51:56;102059.25;;;16.74;100.00
57050;BME280;42935;50.966;16.992;2022-09-01T07:55:14;102059.02;;;17.07;100.00
57050;BME280;42935;50.966;16.992;2022-09-01T07:58:33;102048.71;;;16.89;100.00
57050;BME280;42935;50.966;16.992;2022-09-01T08:01:45;102056.91;;;17.23;100.00
57050;BME280;42935;50.966;16.992;2022-09-01T08:04:57;102056.60;;;17.51;100.00
57050;BME280;42935;50.966;16.992;2022-09-01T08:08:08;102059.16;;;17.82;100.00
57050;BME280;42935;50.966;16.992;2022-09-01T08:11:20;102052.07;;;17.51;98.93
57050;BME280;42935;50.966;16.992;2022-09-01T08:14:32;102062.38;;;17.83;100.00
57050;BME280;42935;50.966;16.992;2022-09-01T08:17:43;102064.45;;;17.81;94.51
57050;BME280;42935;50.966;16.992;2022-09-01T08:20:54;102062.64;;;17.67;92.06
57050;BME280;42935;50.966;16.992;2022-09-01T08:24:08;102069.70;;;17.51;98.85
57050;BME280;42935;50.966;16.992;2022-09-01T08:27:19;102057.18;;;17.73;96.42
57050;BME280;42935;50.966;16.992;2022-09-01T08:30:30;102034.76;;;17.64;96.49
57050;BME280;42935;50.966;16.992;2022-09-01T08:33:48;102058.03;;;17.67;87.93
57050;BME280;42935;50.966;16.992;2022-09-01T08:37:01;102065.41;;;17.63;84.95
57050;BME280;42935;50.966;16.992;2022-09-01T08:40:17;102073.36;;;17.44;92.89
57050;BME280;42935;50.966;16.992;2022-09-01T08:47:04;102069.00;;;17.84;91.30
57050;BME280;42935;50.966;16.992;2022-09-01T08:50:16;102068.73;;;17.53;94.97
57050;BME280;42935;50.966;16.992;2022-09-01T08:53:33;102069.52;;;17.70;92.57
57050;BME280;42935;50.966;16.992;2022-09-01T08:57:04;102071.93;;;18.28;86.67
57050;BME280;42935;50.966;16.992;2022-09-01T09:00:17;102065.48;;;18.88;78.89
57050;BME280;42935;50.966;16.992;2022-09-01T09:03:45;102055.06;;;19.40;81.82
57050;BME280;42935;50.966;16.992;2022-09-01T09:07:08;102052.67;;;19.40;72.94
57050;BME280;42935;50.966;16.992;2022-09-01T09:17:00;102056.20;;;19.22;72.70
57050;BME280;42935;50.966;16.992;2022-09-01T09:20:14;102053.38;;;19.20;70.16
57050;BME280;42935;50.966;16.992;2022-09-01T09:23:33;102060.25;;;18.72;71.30
57050;BME280;42935;50.966;16.992;2022-09-01T09:26:50;102060.05;;;18.83;71.52
57050;BME280;42935;50.966;16.992;2022-09-01T09:36:45;102055.47;;;19.01;73.34
57050;BME280;42935;50.966;16.992;2022-09-01T09:43:20;102043.03;;;19.60;75.62
57050;BME280;42935;50.966;16.992;2022-09-01T09:46:37;102032.61;;;19.90;69.40
57050;BME280;42935;50.966;16.992;2022-09-01T09:49:47;102039.06;;;19.96;67.41
57050;BME280;42935;50.966;16.992;2022-09-01T09:56:25;102034.22;;;19.46;66.41
57050;BME280;42935;50.966;16.992;2022-09-01T10:03:02;102030.40;;;19.10;67.77
57050;BME280;42935;50.966;16.992;2022-09-01T10:09:36;102027.99;;;19.68;66.79
57050;BME280;42935;50.966;16.992;2022-09-01T10:12:48;102025.27;;;19.84;65.67
57050;BME280;42935;50.966;16.992;2022-09-01T10:16:06;102023.63;;;19.82;65.46
57050;BME280;42935;50.966;16.992;2022-09-01T10:19:16;102021.50;;;19.81;64.45
57050;BME280;42935;50.966;16.992;2022-09-01T10:22:35;102016.34;;;20.20;63.76
57050;BME280;42935;50.966;16.992;2022-09-01T10:25:51;102025.31;;;19.74;65.96
57050;BME280;42935;50.966;16.992;2022-09-01T10:29:17;102022.70;;;20.21;67.25
57050;BME280;42935;50.966;16.992;2022-09-01T10:32:41;102014.28;;;20.20;70.42
57050;BME280;42935;50.966;16.992;2022-09-01T10:35:52;102020.02;;;20.31;66.56
57050;BME280;42935;50.966;16.992;2022-09-01T10:39:10;102018.97;;;19.47;65.49
57050;BME280;42935;50.966;16.992;2022-09-01T10:42:20;102031.96;;;18.73;73.49
57050;BME280;42935;50.966;16.992;2022-09-01T10:45:36;102030.62;;;18.79;71.45
57050;BME280;42935;50.966;16.992;2022-09-01T10:59:26;102032.40;;;19.56;63.71
57050;BME280;42935;50.966;16.992;2022-09-01T11:02:38;102024.47;;;19.70;63.24
57050;BME280;42935;50.966;16.992;2022-09-01T11:06:00;102020.42;;;19.89;62.52
57050;BME280;42935;50.966;16.992;2022-09-01T11:09:21;102014.66;;;20.17;62.07
57050;BME280;42935;50.966;16.992;2022-09-01T11:36:51;102024.18;;;19.29;59.50
57050;BME280;42935;50.966;16.992;2022-09-01T11:40:05;102025.40;;;19.63;58.76
57050;BME280;42935;50.966;16.992;2022-09-01T11:43:25;102017.81;;;19.57;58.03
57050;BME280;42935;50.966;16.992;2022-09-01T11:46:37;102020.79;;;19.74;59.16
57050;BME280;42935;50.966;16.992;2022-09-01T11:53:19;102016.95;;;19.98;58.53
57050;BME280;42935;50.966;16.992;2022-09-01T11:56:29;102013.75;;;19.58;59.82
57050;BME280;42935;50.966;16.992;2022-09-01T11:59:39;102019.08;;;19.60;59.66
57050;BME280;42935;50.966;16.992;2022-09-01T12:02:57;102015.26;;;19.59;58.45
57050;BME280;42935;50.966;16.992;2022-09-01T12:06:17;102011.84;;;19.70;58.47
57050;BME280;42935;50.966;16.992;2022-09-01T12:09:56;102008.54;;;19.54;57.96
57050;BME280;42935;50.966;16.992;2022-09-01T12:13:22;102000.36;;;19.69;58.10
57050;BME280;42935;50.966;16.992;2022-09-01T12:17:01;101988.81;;;20.74;54.05
57050;BME280;42935;50.966;16.992;2022-09-01T12:20:24;101983.62;;;21.59;53.61
57050;BME280;42935;50.966;16.992;2022-09-01T12:27:56;101985.52;;;22.09;49.25
57050;BME280;42935;50.966;16.992;2022-09-01T12:31:14;101978.08;;;22.20;48.09
57050;BME280;42935;50.966;16.992;2022-09-01T12:35:01;101972.53;;;22.85;48.27
57050;BME280;42935;50.966;16.992;2022-09-01T12:38:43;101966.34;;;23.02;48.83
57050;BME280;42935;50.966;16.992;2022-09-01T12:42:10;101976.54;;;22.32;46.87
57050;BME280;42935;50.966;16.992;2022-09-01T12:45:11;101978.45;;;21.93;47.05
57050;BME280;42935;50.966;16.992;2022-09-01T12:48:28;101975.03;;;22.12;47.23
57050;BME280;42935;50.966;16.992;2022-09-01T12:51:42;101972.05;;;22.81;47.30
57050;BME280;42935;50.966;16.992;2022-09-01T12:58:23;101966.92;;;23.64;42.71
57050;BME280;42935;50.966;16.992;2022-09-01T13:01:36;101957.26;;;24.06;44.06
57050;BME280;42935;50.966;16.992;2022-09-01T13:04:47;101956.52;;;23.87;43.68
57050;BME280;42935;50.966;16.992;2022-09-01T13:08:04;101953.64;;;23.71;43.40
57050;BME280;42935;50.966;16.992;2022-09-01T13:11:19;101942.43;;;24.50;43.82
57050;BME280;42935;50.966;16.992;2022-09-01T13:14:31;101941.08;;;24.81;44.77
57050;BME280;42935;50.966;16.992;2022-09-01T13:17:40;101939.60;;;24.79;42.45
57050;BME280;42935;50.966;16.992;2022-09-01T13:20:52;101953.59;;;24.39;42.59
57050;BME280;42935;50.966;16.992;2022-09-01T13:24:05;101959.33;;;24.05;44.91
57050;BME280;42935;50.966;16.992;2022-09-01T13:27:17;101955.91;;;23.62;45.32
57050;BME280;42935;50.966;16.992;2022-09-01T13:30:25;101959.15;;;22.90;47.05
57050;BME280;42935;50.966;16.992;2022-09-01T13:33:37;101963.20;;;22.40;48.50
57050;BME280;42935;50.966;16.992;2022-09-01T13:36:49;101958.52;;;23.03;48.03
57050;BME280;42935;50.966;16.992;2022-09-01T13:40:29;101949.88;;;23.90;45.76
57050;BME280;42935;50.966;16.992;2022-09-01T13:43:39;101953.17;;;23.69;45.59
57050;BME280;42935;50.966;16.992;2022-09-01T13:46:51;101949.88;;;23.85;46.04
57050;BME280;42935;50.966;16.992;2022-09-01T13:49:59;101952.58;;;24.50;46.09
57050;BME280;42935;50.966;16.992;2022-09-01T13:53:15;101954.04;;;24.73;44.13
57050;BME280;42935;50.966;16.992;2022-09-01T13:56:24;101954.77;;;24.52;44.84
57050;BME280;42935;50.966;16.992;2022-09-01T13:59:36;101953.67;;;25.20;44.37
57050;BME280;42935;50.966;16.992;2022-09-01T14:02:49;101948.55;;;25.43;44.86
57050;BME280;42935;50.966;16.992;2022-09-01T14:07:46;101943.42;;;26.09;42.47
57050;BME280;42935;50.966;16.992;2022-09-01T14:13:29;101945.48;;;24.05;41.80
57050;BME280;42935;50.966;16.992;2022-09-01T14:17:16;101945.62;;;23.37;43.57
57050;BME280;42935;50.966;16.992;2022-09-01T14:20:34;101939.13;;;22.84;44.77
57050;BME280;42935;50.966;16.992;2022-09-01T14:23:42;101942.04;;;21.46;45.78
57050;BME280;42935;50.966;16.992;2022-09-01T14:26:53;101946.41;;;22.06;47.18
57050;BME280;42935;50.966;16.992;2022-09-01T14:30:35;101949.94;;;22.54;47.83
57050;BME280;42935;50.966;16.992;2022-09-01T14:33:46;101930.38;;;23.07;46.97
57050;BME280;42935;50.966;16.992;2022-09-01T14:37:00;101933.60;;;23.79;44.88
57050;BME280;42935;50.966;16.992;2022-09-01T14:40:45;101936.13;;;22.51;45.29
57050;BME280;42935;50.966;16.992;2022-09-01T14:44:24;101940.81;;;21.89;46.37
57050;BME280;42935;50.966;16.992;2022-09-01T14:47:34;101937.56;;;21.80;45.72
57050;BME280;42935;50.966;16.992;2022-09-01T14:50:51;101937.98;;;21.66;47.12
57050;BME280;42935;50.966;16.992;2022-09-01T14:54:02;101935.44;;;21.25;47.75
57050;BME280;42935;50.966;16.992;2022-09-01T14:57:13;101935.50;;;21.50;50.11
57050;BME280;42935;50.966;16.992;2022-09-01T15:00:26;101930.89;;;23.00;49.27
57050;BME280;42935;50.966;16.992;2022-09-01T15:03:40;101916.17;;;23.46;47.55
57050;BME280;42935;50.966;16.992;2022-09-01T15:06:53;101922.45;;;23.99;46.90
57050;BME280;42935;50.966;16.992;2022-09-01T15:10:34;101912.91;;;24.33;45.89
57050;BME280;42935;50.966;16.992;2022-09-01T15:13:46;101900.77;;;24.66;44.34
57050;BME280;42935;50.966;16.992;2022-09-01T15:16:58;101922.83;;;25.11;40.54
57050;BME280;42935;50.966;16.992;2022-09-01T15:20:13;101922.69;;;25.39;38.55
57050;BME280;42935;50.966;16.992;2022-09-01T15:23:37;101917.48;;;25.56;39.37
57050;BME280;42935;50.966;16.992;2022-09-01T15:26:53;101916.19;;;25.93;40.99
57050;BME280;42935;50.966;16.992;2022-09-01T15:30:07;101906.72;;;25.53;40.07
57050;BME280;42935;50.966;16.992;2022-09-01T15:33:25;101913.65;;;25.86;39.54
57050;BME280;42935;50.966;16.992;2022-09-01T15:36:39;101899.32;;;25.52;39.88
57050;BME280;42935;50.966;16.992;2022-09-01T15:39:52;101922.31;;;26.18;40.42
57050;BME280;42935;50.966;16.992;2022-09-01T15:43:06;101919.12;;;26.52;38.70
57050;BME280;42935;50.966;16.992;2022-09-01T15:46:27;101907.59;;;26.78;39.00
57050;BME280;42935;50.966;16.992;2022-09-01T15:49:38;101914.09;;;26.64;41.05
57050;BME280;42935;50.966;16.992;2022-09-01T15:52:57;101908.65;;;26.53;39.78
57050;BME280;42935;50.966;16.992;2022-09-01T15:56:10;101900.69;;;26.47;40.18
57050;BME280;42935;50.966;16.992;2022-09-01T15:59:53;101901.51;;;25.83;40.98
57050;BME280;42935;50.966;16.992;2022-09-01T16:03:31;101871.93;;;25.25;41.92
57050;BME280;42935;50.966;16.992;2022-09-01T16:06:41;101900.21;;;25.99;41.90
57050;BME280;42935;50.966;16.992;2022-09-01T16:09:52;101901.84;;;25.72;41.79
57050;BME280;42935;50.966;16.992;2022-09-01T16:13:07;101898.07;;;25.86;41.16
57050;BME280;42935;50.966;16.992;2022-09-01T16:23:40;101906.64;;;25.12;42.45
57050;BME280;42935;50.966;16.992;2022-09-01T16:27:22;101905.22;;;25.20;42.19
57050;BME280;42935;50.966;16.992;2022-09-01T16:30:29;101898.09;;;24.94;42.09
57050;BME280;42935;50.966;16.992;2022-09-01T16:33:45;101903.12;;;24.92;41.48
57050;BME280;42935;50.966;16.992;2022-09-01T16:52:01;101903.90;;;22.58;44.89
57050;BME280;42935;50.966;16.992;2022-09-01T16:55:33;101911.39;;;21.81;46.36
57050;BME280;42935;50.966;16.992;2022-09-01T17:05:27;101918.61;;;20.88;50.21
57050;BME280;42935;50.966;16.992;2022-09-01T17:09:20;101922.08;;;20.78;50.00
57050;BME280;42935;50.966;16.992;2022-09-01T17:16:02;101925.98;;;20.27;52.53
57050;BME280;42935;50.966;16.992;2022-09-01T17:19:16;101929.89;;;20.22;52.97
57050;BME280;42935;50.966;16.992;2022-09-01T17:22:30;101930.68;;;20.01;53.93
57050;BME280;42935;50.966;16.992;2022-09-01T17:25:49;101936.37;;;19.76;54.16
57050;BME280;42935;50.966;16.992;2022-09-01T17:29:07;101937.69;;;19.50;55.09
57050;BME280;42935;50.966;16.992;2022-09-01T17:33:02;101943.43;;;18.75;57.18
57050;BME280;42935;50.966;16.992;2022-09-01T17:43:07;101958.12;;;18.03;62.03
57050;BME280;42935;50.966;16.992;2022-09-01T18:00:59;101981.15;;;16.75;70.35
57050;BME280;42935;50.966;16.992;2022-09-01T18:08:41;101994.02;;;15.82;76.78
57050;BME280;42935;50.966;16.992;2022-09-01T18:12:02;101991.77;;;16.10;72.53
57050;BME280;42935;50.966;16.992;2022-09-01T18:15:13;101997.25;;;15.90;71.76
57050;BME280;42935;50.966;16.992;2022-09-01T18:18:53;101997.44;;;15.41;74.52
57050;BME280;42935;50.966;16.992;2022-09-01T18:22:51;102002.98;;;15.63;73.58
57050;BME280;42935;50.966;16.992;2022-09-01T18:26:33;102005.05;;;15.55;72.80
57050;BME280;42935;50.966;16.992;2022-09-01T18:29:48;102007.32;;;15.45;73.98
57050;BME280;42935;50.966;16.992;2022-09-01T18:43:44;102018.02;;;14.81;79.46
57050;BME280;42935;50.966;16.992;2022-09-01T18:57:01;102028.06;;;14.15;87.06
57050;BME280;42935;50.966;16.992;2022-09-01T19:00:21;102029.09;;;14.09;88.03
57050;BME280;42935;50.966;16.992;2022-09-01T19:17:13;102034.66;;;13.55;100.00
57050;BME280;42935;50.966;16.992;2022-09-01T19:23:57;102036.48;;;13.61;98.97
57050;BME280;42935;50.966;16.992;2022-09-01T19:27:39;102039.76;;;13.70;99.39
57050;BME280;42935;50.966;16.992;2022-09-01T19:30:59;102040.72;;;13.74;99.94
57050;BME280;42935;50.966;16.992;2022-09-01T19:34:24;102038.11;;;13.79;100.00
57050;BME280;42935;50.966;16.992;2022-09-01T19:37:28;102037.77;;;13.64;100.00
57050;BME280;42935;50.966;16.992;2022-09-01T19:40:42;102040.85;;;13.34;100.00
57050;BME280;42935;50.966;16.992;2022-09-01T19:44:04;102046.43;;;13.49;100.00
57050;BME280;42935;50.966;16.992;2022-09-01T20:00:54;102052.01;;;13.40;100.00
57050;BME280;42935;50.966;16.992;2022-09-01T20:08:05;102048.60;;;13.68;100.00